sensor_id;sensor_type;location;lat;lon;timestamp;P1;durP1;ratioP1;P2;durP2;ratioP2
71183;SDS011;58887;51.980;4.464;2023-12-20T00:01:46;5.55;;;3.54;;
71183;SDS011;58887;51.980;4.464;2023-12-20T00:04:11;5.96;;;3.74;;
71183;SDS011;58887;51.980;4.464;2023-12-20T00:06:37;5.17;;;3.31;;
71183;SDS011;58887;51.980;4.464;2023-12-20T00:09:02;5.34;;;3.44;;
71183;SDS011;58887;51.980;4.464;2023-12-20T00:11:28;5.68;;;3.69;;
71183;SDS011;58887;51.980;4.464;2023-12-20T00:13:53;4.81;;;3.17;;
71183;SDS011;58887;51.980;4.464;2023-12-20T00:16:19;5.33;;;3.48;;
71183;SDS011;58887;51.980;4.464;2023-12-20T00:18:44;5.57;;;3.63;;
71183;SDS011;58887;51.980;4.464;2023-12-20T00:21:10;5.23;;;3.41;;
71183;SDS011;58887;51.980;4.464;2023-12-20T00:23:35;5.14;;;3.33;;
71183;SDS011;58887;51.980;4.464;2023-12-20T00:26:00;5.22;;;3.35;;
71183;SDS011;58887;51.980;4.464;2023-12-20T00:28:26;5.47;;;3.57;;
71183;SDS011;58887;51.980;4.464;2023-12-20T00:30:51;6.37;;;4.12;;
71183;SDS011;58887;51.980;4.464;2023-12-20T00:33:17;5.05;;;3.26;;
71183;SDS011;58887;51.980;4.464;2023-12-20T00:35:42;4.99;;;3.28;;
71183;SDS011;58887;51.980;4.464;2023-12-20T00:38:08;5.09;;;3.34;;
71183;SDS011;58887;51.980;4.464;2023-12-20T00:40:34;5.77;;;3.74;;
71183;SDS011;58887;51.980;4.464;2023-12-20T00:43:00;5.39;;;3.48;;
71183;SDS011;58887;51.980;4.464;2023-12-20T00:45:26;5.11;;;3.37;;
71183;SDS011;58887;51.980;4.464;2023-12-20T00:47:51;5.29;;;3.51;;
71183;SDS011;58887;51.980;4.464;2023-12-20T00:50:18;5.07;;;3.39;;
71183;SDS011;58887;51.980;4.464;2023-12-20T00:52:43;4.93;;;3.25;;
71183;SDS011;58887;51.980;4.464;2023-12-20T00:55:09;5.22;;;3.45;;
71183;SDS011;58887;51.980;4.464;2023-12-20T00:57:34;5.38;;;3.56;;
71183;SDS011;58887;51.980;4.464;2023-12-20T01:00:01;5.39;;;3.57;;
71183;SDS011;58887;51.980;4.464;2023-12-20T01:02:27;5.95;;;3.96;;
71183;SDS011;58887;51.980;4.464;2023-12-20T01:04:52;5.81;;;3.92;;
71183;SDS011;58887;51.980;4.464;2023-12-20T01:07:17;5.26;;;3.57;;
71183;SDS011;58887;51.980;4.464;2023-12-20T01:09:43;5.26;;;3.59;;
71183;SDS011;58887;51.980;4.464;2023-12-20T01:12:09;4.73;;;3.23;;
71183;SDS011;58887;51.980;4.464;2023-12-20T01:14:35;5.78;;;3.85;;
71183;SDS011;58887;51.980;4.464;2023-12-20T01:17:01;6.11;;;4.05;;
71183;SDS011;58887;51.980;4.464;2023-12-20T01:19:27;5.87;;;3.87;;
71183;SDS011;58887;51.980;4.464;2023-12-20T01:21:54;7.03;;;4.65;;
71183;SDS011;58887;51.980;4.464;2023-12-20T01:24:20;5.86;;;3.91;;
71183;SDS011;58887;51.980;4.464;2023-12-20T01:26:46;6.27;;;4.16;;
71183;SDS011;58887;51.980;4.464;2023-12-20T01:29:11;5.63;;;3.73;;
71183;SDS011;58887;51.980;4.464;2023-12-20T01:31:39;5.66;;;3.78;;
71183;SDS011;58887;51.980;4.464;2023-12-20T01:34:05;4.96;;;3.38;;
71183;SDS011;58887;51.980;4.464;2023-12-20T01:36:31;4.71;;;3.25;;
71183;SDS011;58887;51.980;4.464;2023-12-20T01:38:56;4.96;;;3.31;;
71183;SDS011;58887;51.980;4.464;2023-12-20T01:41:22;5.53;;;3.60;;
71183;SDS011;58887;51.980;4.464;2023-12-20T01:43:47;5.64;;;3.67;;
71183;SDS011;58887;51.980;4.464;2023-12-20T01:46:13;5.90;;;3.81;;
71183;SDS011;58887;51.980;4.464;2023-12-20T01:48:39;5.82;;;3.70;;
71183;SDS011;58887;51.980;4.464;2023-12-20T01:51:05;6.44;;;4.07;;
71183;SDS011;58887;51.980;4.464;2023-12-20T01:53:31;6.38;;;4.00;;
71183;SDS011;58887;51.980;4.464;2023-12-20T01:55:57;7.22;;;4.49;;
71183;SDS011;58887;51.980;4.464;2023-12-20T01:58:24;6.81;;;4.28;;
71183;SDS011;58887;51.980;4.464;2023-12-20T02:00:51;6.74;;;4.32;;
71183;SDS011;58887;51.980;4.464;2023-12-20T02:03:17;6.51;;;4.12;;
71183;SDS011;58887;51.980;4.464;2023-12-20T02:05:44;6.94;;;4.39;;
71183;SDS011;58887;51.980;4.464;2023-12-20T02:08:11;6.96;;;4.42;;
71183;SDS011;58887;51.980;4.464;2023-12-20T02:10:36;6.91;;;4.42;;
71183;SDS011;58887;51.980;4.464;2023-12-20T02:13:03;6.57;;;4.21;;
71183;SDS011;58887;51.980;4.464;2023-12-20T02:15:29;6.54;;;4.23;;
71183;SDS011;58887;51.980;4.464;2023-12-20T02:17:55;6.40;;;4.14;;
71183;SDS011;58887;51.980;4.464;2023-12-20T02:20:21;6.80;;;4.30;;
71183;SDS011;58887;51.980;4.464;2023-12-20T02:22:47;6.81;;;4.37;;
71183;SDS011;58887;51.980;4.464;2023-12-20T02:25:12;7.13;;;4.53;;
71183;SDS011;58887;51.980;4.464;2023-12-20T02:27:38;6.52;;;4.12;;
71183;SDS011;58887;51.980;4.464;2023-12-20T02:30:05;6.51;;;4.09;;
71183;SDS011;58887;51.980;4.464;2023-12-20T02:32:31;6.04;;;3.89;;
71183;SDS011;58887;51.980;4.464;2023-12-20T02:34:57;5.51;;;3.51;;
71183;SDS011;58887;51.980;4.464;2023-12-20T02:37:23;6.46;;;4.08;;
71183;SDS011;58887;51.980;4.464;2023-12-20T02:39:48;6.26;;;4.07;;
71183;SDS011;58887;51.980;4.464;2023-12-20T02:42:14;6.21;;;4.04;;
71183;SDS011;58887;51.980;4.464;2023-12-20T02:44:39;5.57;;;3.65;;
71183;SDS011;58887;51.980;4.464;2023-12-20T02:47:05;6.06;;;3.98;;
71183;SDS011;58887;51.980;4.464;2023-12-20T02:49:30;6.23;;;4.04;;
71183;SDS011;58887;51.980;4.464;2023-12-20T02:51:56;6.28;;;4.10;;
71183;SDS011;58887;51.980;4.464;2023-12-20T02:54:21;6.21;;;4.04;;
71183;SDS011;58887;51.980;4.464;2023-12-20T02:56:47;6.18;;;4.01;;
71183;SDS011;58887;51.980;4.464;2023-12-20T02:59:12;5.90;;;3.86;;
71183;SDS011;58887;51.980;4.464;2023-12-20T03:01:42;5.88;;;3.82;;
71183;SDS011;58887;51.980;4.464;2023-12-20T03:04:09;6.02;;;3.88;;
71183;SDS011;58887;51.980;4.464;2023-12-20T03:06:34;6.69;;;4.20;;
71183;SDS011;58887;51.980;4.464;2023-12-20T03:09:00;7.41;;;4.60;;
71183;SDS011;58887;51.980;4.464;2023-12-20T03:11:28;7.37;;;4.61;;
71183;SDS011;58887;51.980;4.464;2023-12-20T03:13:54;6.40;;;4.01;;
71183;SDS011;58887;51.980;4.464;2023-12-20T03:16:20;7.13;;;4.43;;
71183;SDS011;58887;51.980;4.464;2023-12-20T03:18:46;6.49;;;4.01;;
71183;SDS011;58887;51.980;4.464;2023-12-20T03:21:13;7.48;;;4.67;;
71183;SDS011;58887;51.980;4.464;2023-12-20T03:23:39;6.63;;;4.20;;
71183;SDS011;58887;51.980;4.464;2023-12-20T03:26:08;6.58;;;4.23;;
71183;SDS011;58887;51.980;4.464;2023-12-20T03:28:34;6.35;;;4.04;;
71183;SDS011;58887;51.980;4.464;2023-12-20T03:31:01;6.57;;;4.17;;
71183;SDS011;58887;51.980;4.464;2023-12-20T03:33:27;7.50;;;4.71;;
71183;SDS011;58887;51.980;4.464;2023-12-20T03:35:53;6.65;;;4.21;;
71183;SDS011;58887;51.980;4.464;2023-12-20T03:38:18;7.61;;;4.82;;
71183;SDS011;58887;51.980;4.464;2023-12-20T03:40:44;7.04;;;4.41;;
71183;SDS011;58887;51.980;4.464;2023-12-20T03:43:09;6.85;;;4.39;;
71183;SDS011;58887;51.980;4.464;2023-12-20T03:45:35;6.88;;;4.34;;
71183;SDS011;58887;51.980;4.464;2023-12-20T03:48:00;8.15;;;5.01;;
71183;SDS011;58887;51.980;4.464;2023-12-20T03:50:26;7.17;;;4.48;;
71183;SDS011;58887;51.980;4.464;2023-12-20T03:52:52;5.99;;;3.85;;
71183;SDS011;58887;51.980;4.464;2023-12-20T03:55:17;5.70;;;3.74;;
71183;SDS011;58887;51.980;4.464;2023-12-20T03:57:43;5.29;;;3.51;;
71183;SDS011;58887;51.980;4.464;2023-12-20T04:00:09;6.06;;;3.93;;
71183;SDS011;58887;51.980;4.464;2023-12-20T04:02:36;5.87;;;3.79;;
71183;SDS011;58887;51.980;4.464;2023-12-20T04:05:02;6.69;;;4.28;;
71183;SDS011;58887;51.980;4.464;2023-12-20T04:07:27;6.70;;;4.28;;
71183;SDS011;58887;51.980;4.464;2023-12-20T04:09:53;7.00;;;4.52;;
71183;SDS011;58887;51.980;4.464;2023-12-20T04:12:18;7.09;;;4.58;;
71183;SDS011;58887;51.980;4.464;2023-12-20T04:14:44;7.52;;;4.80;;
71183;SDS011;58887;51.980;4.464;2023-12-20T04:17:09;7.54;;;4.75;;
71183;SDS011;58887;51.980;4.464;2023-12-20T04:19:35;6.46;;;4.12;;
71183;SDS011;58887;51.980;4.464;2023-12-20T04:22:00;6.61;;;4.25;;
71183;SDS011;58887;51.980;4.464;2023-12-20T04:24:26;6.88;;;4.36;;
71183;SDS011;58887;51.980;4.464;2023-12-20T04:26:52;7.89;;;4.94;;
71183;SDS011;58887;51.980;4.464;2023-12-20T04:29:17;7.59;;;4.78;;
71183;SDS011;58887;51.980;4.464;2023-12-20T04:31:43;7.85;;;4.95;;
71183;SDS011;58887;51.980;4.464;2023-12-20T04:34:08;7.50;;;4.71;;
71183;SDS011;58887;51.980;4.464;2023-12-20T04:36:34;6.71;;;4.27;;
71183;SDS011;58887;51.980;4.464;2023-12-20T04:38:59;6.72;;;4.32;;
71183;SDS011;58887;51.980;4.464;2023-12-20T04:41:25;7.16;;;4.53;;
71183;SDS011;58887;51.980;4.464;2023-12-20T04:43:50;6.22;;;3.92;;
71183;SDS011;58887;51.980;4.464;2023-12-20T04:46:16;7.24;;;4.53;;
71183;SDS011;58887;51.980;4.464;2023-12-20T04:48:41;7.95;;;4.99;;
71183;SDS011;58887;51.980;4.464;2023-12-20T04:51:07;6.56;;;4.14;;
71183;SDS011;58887;51.980;4.464;2023-12-20T04:53:32;6.55;;;4.19;;
71183;SDS011;58887;51.980;4.464;2023-12-20T04:55:58;7.01;;;4.45;;
71183;SDS011;58887;51.980;4.464;2023-12-20T04:58:23;7.21;;;4.48;;
71183;SDS011;58887;51.980;4.464;2023-12-20T05:00:50;7.02;;;4.38;;
71183;SDS011;58887;51.980;4.464;2023-12-20T05:03:15;6.53;;;4.13;;
71183;SDS011;58887;51.980;4.464;2023-12-20T05:05:40;6.63;;;4.22;;
71183;SDS011;58887;51.980;4.464;2023-12-20T05:08:06;6.69;;;4.24;;
71183;SDS011;58887;51.980;4.464;2023-12-20T05:10:31;6.04;;;3.83;;
71183;SDS011;58887;51.980;4.464;2023-12-20T05:12:57;6.31;;;3.96;;
71183;SDS011;58887;51.980;4.464;2023-12-20T05:15:22;6.96;;;4.35;;
71183;SDS011;58887;51.980;4.464;2023-12-20T05:17:47;7.51;;;4.71;;
71183;SDS011;58887;51.980;4.464;2023-12-20T05:20:15;5.94;;;3.79;;
71183;SDS011;58887;51.980;4.464;2023-12-20T05:22:41;6.35;;;4.05;;
71183;SDS011;58887;51.980;4.464;2023-12-20T05:25:06;6.64;;;4.25;;
71183;SDS011;58887;51.980;4.464;2023-12-20T05:27:32;6.18;;;3.93;;
71183;SDS011;58887;51.980;4.464;2023-12-20T05:29:59;7.11;;;4.45;;
71183;SDS011;58887;51.980;4.464;2023-12-20T05:32:24;8.76;;;5.42;;
71183;SDS011;58887;51.980;4.464;2023-12-20T05:34:50;8.00;;;4.92;;
71183;SDS011;58887;51.980;4.464;2023-12-20T05:37:15;8.82;;;5.45;;
71183;SDS011;58887;51.980;4.464;2023-12-20T05:39:41;7.66;;;4.79;;
71183;SDS011;58887;51.980;4.464;2023-12-20T05:42:06;7.57;;;4.81;;
71183;SDS011;58887;51.980;4.464;2023-12-20T05:44:32;6.53;;;4.19;;
71183;SDS011;58887;51.980;4.464;2023-12-20T05:46:57;7.15;;;4.56;;
71183;SDS011;58887;51.980;4.464;2023-12-20T05:49:22;7.14;;;4.54;;
71183;SDS011;58887;51.980;4.464;2023-12-20T05:51:48;6.99;;;4.49;;
71183;SDS011;58887;51.980;4.464;2023-12-20T05:54:14;7.79;;;5.01;;
71183;SDS011;58887;51.980;4.464;2023-12-20T05:56:39;6.68;;;4.27;;
71183;SDS011;58887;51.980;4.464;2023-12-20T05:59:04;6.50;;;4.20;;
71183;SDS011;58887;51.980;4.464;2023-12-20T06:01:30;7.01;;;4.45;;
71183;SDS011;58887;51.980;4.464;2023-12-20T06:03:55;7.89;;;4.88;;
71183;SDS011;58887;51.980;4.464;2023-12-20T06:06:21;7.83;;;4.87;;
71183;SDS011;58887;51.980;4.464;2023-12-20T06:08:46;7.65;;;4.77;;
71183;SDS011;58887;51.980;4.464;2023-12-20T06:11:12;7.71;;;4.82;;
71183;SDS011;58887;51.980;4.464;2023-12-20T06:13:38;8.72;;;5.33;;
71183;SDS011;58887;51.980;4.464;2023-12-20T06:16:05;8.09;;;4.98;;
71183;SDS011;58887;51.980;4.464;2023-12-20T06:18:31;7.60;;;4.71;;
71183;SDS011;58887;51.980;4.464;2023-12-20T06:20:56;7.76;;;4.78;;
71183;SDS011;58887;51.980;4.464;2023-12-20T06:23:22;7.66;;;4.71;;
71183;SDS011;58887;51.980;4.464;2023-12-20T06:25:47;8.14;;;5.03;;
71183;SDS011;58887;51.980;4.464;2023-12-20T06:28:12;7.37;;;4.62;;
71183;SDS011;58887;51.980;4.464;2023-12-20T06:30:40;6.85;;;4.40;;
71183;SDS011;58887;51.980;4.464;2023-12-20T06:33:05;5.68;;;3.67;;
71183;SDS011;58887;51.980;4.464;2023-12-20T06:35:32;7.31;;;4.63;;
71183;SDS011;58887;51.980;4.464;2023-12-20T06:37:57;7.28;;;4.61;;
71183;SDS011;58887;51.980;4.464;2023-12-20T06:40:22;6.52;;;4.12;;
71183;SDS011;58887;51.980;4.464;2023-12-20T06:42:48;7.58;;;4.77;;
71183;SDS011;58887;51.980;4.464;2023-12-20T06:45:13;7.25;;;4.56;;
71183;SDS011;58887;51.980;4.464;2023-12-20T06:47:39;6.87;;;4.37;;
71183;SDS011;58887;51.980;4.464;2023-12-20T06:50:05;6.56;;;4.24;;
71183;SDS011;58887;51.980;4.464;2023-12-20T06:52:30;6.98;;;4.46;;
71183;SDS011;58887;51.980;4.464;2023-12-20T06:54:56;6.63;;;4.17;;
71183;SDS011;58887;51.980;4.464;2023-12-20T06:57:21;7.47;;;4.73;;
71183;SDS011;58887;51.980;4.464;2023-12-20T06:59:47;7.34;;;4.71;;
71183;SDS011;58887;51.980;4.464;2023-12-20T07:02:12;7.56;;;4.81;;
71183;SDS011;58887;51.980;4.464;2023-12-20T07:04:41;7.69;;;4.95;;
71183;SDS011;58887;51.980;4.464;2023-12-20T07:07:06;7.20;;;4.63;;
71183;SDS011;58887;51.980;4.464;2023-12-20T07:09:32;7.44;;;4.77;;
71183;SDS011;58887;51.980;4.464;2023-12-20T07:11:58;6.82;;;4.41;;
71183;SDS011;58887;51.980;4.464;2023-12-20T07:14:24;6.38;;;4.16;;
71183;SDS011;58887;51.980;4.464;2023-12-20T07:16:49;6.88;;;4.45;;
71183;SDS011;58887;51.980;4.464;2023-12-20T07:19:15;6.31;;;4.09;;
71183;SDS011;58887;51.980;4.464;2023-12-20T07:21:40;6.44;;;4.23;;
71183;SDS011;58887;51.980;4.464;2023-12-20T07:24:06;6.95;;;4.43;;
71183;SDS011;58887;51.980;4.464;2023-12-20T07:26:32;6.39;;;4.11;;
71183;SDS011;58887;51.980;4.464;2023-12-20T07:28:57;7.41;;;4.75;;
71183;SDS011;58887;51.980;4.464;2023-12-20T07:31:23;8.30;;;5.17;;
71183;SDS011;58887;51.980;4.464;2023-12-20T07:33:49;8.27;;;5.06;;
71183;SDS011;58887;51.980;4.464;2023-12-20T07:36:15;8.40;;;5.21;;
71183;SDS011;58887;51.980;4.464;2023-12-20T07:38:40;6.63;;;4.16;;
71183;SDS011;58887;51.980;4.464;2023-12-20T07:41:09;7.19;;;4.58;;
71183;SDS011;58887;51.980;4.464;2023-12-20T07:43:35;6.51;;;4.23;;
71183;SDS011;58887;51.980;4.464;2023-12-20T07:46:06;7.18;;;4.70;;
71183;SDS011;58887;51.980;4.464;2023-12-20T07:48:32;6.38;;;4.16;;
71183;SDS011;58887;51.980;4.464;2023-12-20T07:50:59;6.61;;;4.28;;
71183;SDS011;58887;51.980;4.464;2023-12-20T07:53:24;6.82;;;4.43;;
71183;SDS011;58887;51.980;4.464;2023-12-20T07:55:50;6.55;;;4.25;;
71183;SDS011;58887;51.980;4.464;2023-12-20T07:58:17;6.06;;;3.95;;
71183;SDS011;58887;51.980;4.464;2023-12-20T08:00:43;6.30;;;4.10;;
71183;SDS011;58887;51.980;4.464;2023-12-20T08:03:09;6.35;;;4.06;;
71183;SDS011;58887;51.980;4.464;2023-12-20T08:05:34;7.63;;;4.81;;
71183;SDS011;58887;51.980;4.464;2023-12-20T08:08:00;7.48;;;4.75;;
71183;SDS011;58887;51.980;4.464;2023-12-20T08:10:25;7.07;;;4.46;;
71183;SDS011;58887;51.980;4.464;2023-12-20T08:12:52;7.09;;;4.52;;
71183;SDS011;58887;51.980;4.464;2023-12-20T08:15:17;6.79;;;4.33;;
71183;SDS011;58887;51.980;4.464;2023-12-20T08:17:43;6.96;;;4.40;;
71183;SDS011;58887;51.980;4.464;2023-12-20T08:20:08;7.27;;;4.63;;
71183;SDS011;58887;51.980;4.464;2023-12-20T08:22:34;6.84;;;4.31;;
71183;SDS011;58887;51.980;4.464;2023-12-20T08:24:59;7.31;;;4.63;;
71183;SDS011;58887;51.980;4.464;2023-12-20T08:27:25;6.61;;;4.23;;
71183;SDS011;58887;51.980;4.464;2023-12-20T08:29:51;7.20;;;4.55;;
71183;SDS011;58887;51.980;4.464;2023-12-20T08:32:16;6.51;;;4.09;;
71183;SDS011;58887;51.980;4.464;2023-12-20T08:34:41;8.21;;;5.22;;
71183;SDS011;58887;51.980;4.464;2023-12-20T08:37:07;7.09;;;4.51;;
71183;SDS011;58887;51.980;4.464;2023-12-20T08:39:32;6.67;;;4.27;;
71183;SDS011;58887;51.980;4.464;2023-12-20T08:41:58;7.70;;;4.87;;
71183;SDS011;58887;51.980;4.464;2023-12-20T08:44:24;6.90;;;4.24;;
71183;SDS011;58887;51.980;4.464;2023-12-20T08:46:50;7.77;;;4.80;;
71183;SDS011;58887;51.980;4.464;2023-12-20T08:49:15;7.04;;;4.35;;
71183;SDS011;58887;51.980;4.464;2023-12-20T08:51:42;7.54;;;4.63;;
71183;SDS011;58887;51.980;4.464;2023-12-20T08:54:07;6.70;;;4.16;;
71183;SDS011;58887;51.980;4.464;2023-12-20T08:56:34;7.70;;;4.77;;
71183;SDS011;58887;51.980;4.464;2023-12-20T08:59:00;7.04;;;4.31;;
71183;SDS011;58887;51.980;4.464;2023-12-20T09:01:25;6.86;;;4.19;;
71183;SDS011;58887;51.980;4.464;2023-12-20T09:03:50;7.17;;;4.42;;
71183;SDS011;58887;51.980;4.464;2023-12-20T09:06:16;6.98;;;4.29;;
71183;SDS011;58887;51.980;4.464;2023-12-20T09:08:41;8.34;;;5.05;;
71183;SDS011;58887;51.980;4.464;2023-12-20T09:11:07;6.83;;;4.16;;
71183;SDS011;58887;51.980;4.464;2023-12-20T09:13:32;7.14;;;4.40;;
71183;SDS011;58887;51.980;4.464;2023-12-20T09:15:58;7.01;;;4.30;;
71183;SDS011;58887;51.980;4.464;2023-12-20T09:18:23;7.19;;;4.46;;
71183;SDS011;58887;51.980;4.464;2023-12-20T09:20:49;7.32;;;4.61;;
71183;SDS011;58887;51.980;4.464;2023-12-20T09:23:14;7.19;;;4.49;;
71183;SDS011;58887;51.980;4.464;2023-12-20T09:25:40;6.43;;;3.96;;
71183;SDS011;58887;51.980;4.464;2023-12-20T09:28:05;7.31;;;4.48;;
71183;SDS011;58887;51.980;4.464;2023-12-20T09:30:31;6.91;;;4.30;;
71183;SDS011;58887;51.980;4.464;2023-12-20T09:32:58;7.06;;;4.43;;
71183;SDS011;58887;51.980;4.464;2023-12-20T09:35:23;6.73;;;4.24;;
71183;SDS011;58887;51.980;4.464;2023-12-20T09:37:49;7.35;;;4.57;;
71183;SDS011;58887;51.980;4.464;2023-12-20T09:40:14;6.64;;;4.12;;
71183;SDS011;58887;51.980;4.464;2023-12-20T09:42:47;7.31;;;4.55;;
71183;SDS011;58887;51.980;4.464;2023-12-20T09:45:23;7.49;;;4.60;;
71183;SDS011;58887;51.980;4.464;2023-12-20T09:47:51;7.61;;;4.70;;
71183;SDS011;58887;51.980;4.464;2023-12-20T09:50:19;7.76;;;4.83;;
71183;SDS011;58887;51.980;4.464;2023-12-20T09:52:47;7.00;;;4.36;;
71183;SDS011;58887;51.980;4.464;2023-12-20T09:55:16;6.84;;;4.29;;
71183;SDS011;58887;51.980;4.464;2023-12-20T09:57:43;7.41;;;4.60;;
71183;SDS011;58887;51.980;4.464;2023-12-20T10:00:08;7.75;;;4.76;;
71183;SDS011;58887;51.980;4.464;2023-12-20T10:02:34;7.09;;;4.41;;
71183;SDS011;58887;51.980;4.464;2023-12-20T10:05:07;7.46;;;4.73;;
71183;SDS011;58887;51.980;4.464;2023-12-20T10:07:35;6.24;;;3.99;;
71183;SDS011;58887;51.980;4.464;2023-12-20T10:10:00;6.67;;;4.24;;
71183;SDS011;58887;51.980;4.464;2023-12-20T10:12:27;7.05;;;4.35;;
71183;SDS011;58887;51.980;4.464;2023-12-20T10:14:53;6.13;;;3.78;;
71183;SDS011;58887;51.980;4.464;2023-12-20T10:17:18;7.14;;;4.44;;
71183;SDS011;58887;51.980;4.464;2023-12-20T10:19:43;6.05;;;3.77;;
71183;SDS011;58887;51.980;4.464;2023-12-20T10:22:09;5.54;;;3.50;;
71183;SDS011;58887;51.980;4.464;2023-12-20T10:24:35;5.58;;;3.54;;
71183;SDS011;58887;51.980;4.464;2023-12-20T10:27:02;6.51;;;4.10;;
71183;SDS011;58887;51.980;4.464;2023-12-20T10:29:31;5.63;;;3.54;;
71183;SDS011;58887;51.980;4.464;2023-12-20T10:32:21;6.29;;;3.92;;
71183;SDS011;58887;51.980;4.464;2023-12-20T10:34:47;6.85;;;4.21;;
71183;SDS011;58887;51.980;4.464;2023-12-20T10:37:13;6.73;;;4.09;;
71183;SDS011;58887;51.980;4.464;2023-12-20T10:39:38;7.69;;;4.60;;
71183;SDS011;58887;51.980;4.464;2023-12-20T10:42:04;6.87;;;4.16;;
71183;SDS011;58887;51.980;4.464;2023-12-20T10:44:31;6.62;;;4.13;;
71183;SDS011;58887;51.980;4.464;2023-12-20T10:46:56;6.47;;;4.02;;
71183;SDS011;58887;51.980;4.464;2023-12-20T10:49:24;5.95;;;3.73;;
71183;SDS011;58887;51.980;4.464;2023-12-20T10:51:52;7.44;;;4.71;;
71183;SDS011;58887;51.980;4.464;2023-12-20T10:54:19;6.56;;;4.16;;
71183;SDS011;58887;51.980;4.464;2023-12-20T10:56:45;5.77;;;3.71;;
71183;SDS011;58887;51.980;4.464;2023-12-20T10:59:11;6.50;;;4.13;;
71183;SDS011;58887;51.980;4.464;2023-12-20T11:01:44;5.83;;;3.70;;
71183;SDS011;58887;51.980;4.464;2023-12-20T11:04:10;6.79;;;4.24;;
71183;SDS011;58887;51.980;4.464;2023-12-20T11:06:54;6.44;;;4.07;;
71183;SDS011;58887;51.980;4.464;2023-12-20T11:09:55;6.85;;;4.31;;
71183;SDS011;58887;51.980;4.464;2023-12-20T11:12:32;5.82;;;3.67;;
71183;SDS011;58887;51.980;4.464;2023-12-20T11:15:06;7.22;;;4.47;;
71183;SDS011;58887;51.980;4.464;2023-12-20T11:17:32;6.35;;;3.94;;
71183;SDS011;58887;51.980;4.464;2023-12-20T11:22:24;6.10;;;3.87;;
71183;SDS011;58887;51.980;4.464;2023-12-20T11:24:51;6.60;;;4.19;;
71183;SDS011;58887;51.980;4.464;2023-12-20T11:27:18;5.81;;;3.67;;
71183;SDS011;58887;51.980;4.464;2023-12-20T11:29:51;6.13;;;3.88;;
71183;SDS011;58887;51.980;4.464;2023-12-20T11:35:01;6.20;;;3.90;;
71183;SDS011;58887;51.980;4.464;2023-12-20T11:37:42;6.15;;;3.81;;
71183;SDS011;58887;51.980;4.464;2023-12-20T11:40:12;6.36;;;3.96;;
71183;SDS011;58887;51.980;4.464;2023-12-20T11:42:43;6.43;;;4.03;;
71183;SDS011;58887;51.980;4.464;2023-12-20T11:45:14;5.29;;;3.35;;
71183;SDS011;58887;51.980;4.464;2023-12-20T11:47:45;5.92;;;3.78;;
71183;SDS011;58887;51.980;4.464;2023-12-20T11:50:12;6.00;;;3.78;;
71183;SDS011;58887;51.980;4.464;2023-12-20T11:52:38;5.98;;;3.72;;
71183;SDS011;58887;51.980;4.464;2023-12-20T11:55:03;5.43;;;3.41;;
71183;SDS011;58887;51.980;4.464;2023-12-20T11:57:30;6.13;;;3.84;;
71183;SDS011;58887;51.980;4.464;2023-12-20T11:59:55;6.49;;;4.02;;
71183;SDS011;58887;51.980;4.464;2023-12-20T12:02:21;5.72;;;3.61;;
71183;SDS011;58887;51.980;4.464;2023-12-20T12:04:49;5.36;;;3.43;;
71183;SDS011;58887;51.980;4.464;2023-12-20T12:07:17;5.99;;;3.77;;
71183;SDS011;58887;51.980;4.464;2023-12-20T12:09:43;5.77;;;3.68;;
71183;SDS011;58887;51.980;4.464;2023-12-20T12:12:09;5.45;;;3.46;;
71183;SDS011;58887;51.980;4.464;2023-12-20T12:14:37;6.65;;;4.14;;
71183;SDS011;58887;51.980;4.464;2023-12-20T12:17:03;6.20;;;3.86;;
71183;SDS011;58887;51.980;4.464;2023-12-20T12:19:29;6.09;;;3.70;;
71183;SDS011;58887;51.980;4.464;2023-12-20T12:24:45;6.94;;;4.18;;
71183;SDS011;58887;51.980;4.464;2023-12-20T12:27:15;6.35;;;3.81;;
71183;SDS011;58887;51.980;4.464;2023-12-20T12:29:41;6.29;;;3.82;;
71183;SDS011;58887;51.980;4.464;2023-12-20T12:32:25;7.12;;;4.32;;
71183;SDS011;58887;51.980;4.464;2023-12-20T12:34:51;6.51;;;3.96;;
71183;SDS011;58887;51.980;4.464;2023-12-20T12:37:16;6.19;;;3.82;;
71183;SDS011;58887;51.980;4.464;2023-12-20T12:39:42;6.79;;;4.21;;
71183;SDS011;58887;51.980;4.464;2023-12-20T12:42:07;7.31;;;4.54;;
71183;SDS011;58887;51.980;4.464;2023-12-20T12:44:33;6.98;;;4.33;;
71183;SDS011;58887;51.980;4.464;2023-12-20T12:46:58;6.23;;;3.83;;
71183;SDS011;58887;51.980;4.464;2023-12-20T12:49:24;5.54;;;3.43;;
71183;SDS011;58887;51.980;4.464;2023-12-20T12:51:49;6.13;;;3.76;;
71183;SDS011;58887;51.980;4.464;2023-12-20T12:54:16;6.52;;;3.96;;
71183;SDS011;58887;51.980;4.464;2023-12-20T12:56:43;6.19;;;3.81;;
71183;SDS011;58887;51.980;4.464;2023-12-20T12:59:09;6.19;;;3.90;;
71183;SDS011;58887;51.980;4.464;2023-12-20T13:01:35;6.87;;;4.33;;
71183;SDS011;58887;51.980;4.464;2023-12-20T13:04:00;5.83;;;3.69;;
71183;SDS011;58887;51.980;4.464;2023-12-20T13:06:32;5.87;;;3.73;;
71183;SDS011;58887;51.980;4.464;2023-12-20T13:08:57;6.39;;;4.02;;
71183;SDS011;58887;51.980;4.464;2023-12-20T13:11:23;6.97;;;4.34;;
71183;SDS011;58887;51.980;4.464;2023-12-20T13:13:50;7.42;;;4.56;;
71183;SDS011;58887;51.980;4.464;2023-12-20T13:16:15;6.40;;;3.90;;
71183;SDS011;58887;51.980;4.464;2023-12-20T13:18:41;6.92;;;4.19;;
71183;SDS011;58887;51.980;4.464;2023-12-20T13:21:08;6.94;;;4.21;;
71183;SDS011;58887;51.980;4.464;2023-12-20T13:23:34;6.77;;;4.08;;
71183;SDS011;58887;51.980;4.464;2023-12-20T13:26:00;7.07;;;4.23;;
71183;SDS011;58887;51.980;4.464;2023-12-20T13:28:25;7.20;;;4.36;;
71183;SDS011;58887;51.980;4.464;2023-12-20T13:30:51;6.77;;;4.12;;
71183;SDS011;58887;51.980;4.464;2023-12-20T13:33:17;6.63;;;4.10;;
71183;SDS011;58887;51.980;4.464;2023-12-20T13:35:42;6.02;;;3.74;;
71183;SDS011;58887;51.980;4.464;2023-12-20T13:38:08;6.63;;;4.08;;
71183;SDS011;58887;51.980;4.464;2023-12-20T13:40:33;5.88;;;3.67;;
71183;SDS011;58887;51.980;4.464;2023-12-20T13:42:59;6.40;;;3.97;;
71183;SDS011;58887;51.980;4.464;2023-12-20T13:45:24;6.07;;;3.85;;
71183;SDS011;58887;51.980;4.464;2023-12-20T13:47:50;6.04;;;3.88;;
71183;SDS011;58887;51.980;4.464;2023-12-20T13:50:16;5.67;;;3.63;;
71183;SDS011;58887;51.980;4.464;2023-12-20T13:52:41;6.01;;;3.80;;
71183;SDS011;58887;51.980;4.464;2023-12-20T13:55:07;6.92;;;4.38;;
71183;SDS011;58887;51.980;4.464;2023-12-20T13:57:33;6.63;;;4.21;;
71183;SDS011;58887;51.980;4.464;2023-12-20T13:59:59;6.05;;;3.84;;
71183;SDS011;58887;51.980;4.464;2023-12-20T14:02:25;6.27;;;3.96;;
71183;SDS011;58887;51.980;4.464;2023-12-20T14:04:52;5.81;;;3.66;;
71183;SDS011;58887;51.980;4.464;2023-12-20T14:07:17;5.66;;;3.66;;
71183;SDS011;58887;51.980;4.464;2023-12-20T14:09:44;4.98;;;3.25;;
71183;SDS011;58887;51.980;4.464;2023-12-20T14:12:13;6.01;;;3.91;;
71183;SDS011;58887;51.980;4.464;2023-12-20T14:14:39;6.29;;;4.02;;
71183;SDS011;58887;51.980;4.464;2023-12-20T14:17:04;6.30;;;4.01;;
71183;SDS011;58887;51.980;4.464;2023-12-20T14:19:31;6.04;;;3.88;;
71183;SDS011;58887;51.980;4.464;2023-12-20T14:21:58;6.73;;;4.33;;
71183;SDS011;58887;51.980;4.464;2023-12-20T14:24:27;5.50;;;3.50;;
71183;SDS011;58887;51.980;4.464;2023-12-20T14:26:52;5.37;;;3.43;;
71183;SDS011;58887;51.980;4.464;2023-12-20T14:29:18;6.45;;;4.18;;
71183;SDS011;58887;51.980;4.464;2023-12-20T14:31:43;5.35;;;3.57;;
71183;SDS011;58887;51.980;4.464;2023-12-20T14:34:09;5.28;;;3.50;;
71183;SDS011;58887;51.980;4.464;2023-12-20T14:36:34;5.76;;;3.78;;
71183;SDS011;58887;51.980;4.464;2023-12-20T14:39:00;5.19;;;3.38;;
71183;SDS011;58887;51.980;4.464;2023-12-20T14:41:26;5.22;;;3.35;;
71183;SDS011;58887;51.980;4.464;2023-12-20T14:43:52;6.37;;;4.07;;
71183;SDS011;58887;51.980;4.464;2023-12-20T14:46:18;6.80;;;4.31;;
71183;SDS011;58887;51.980;4.464;2023-12-20T14:48:44;5.17;;;3.28;;
71183;SDS011;58887;51.980;4.464;2023-12-20T14:51:09;5.67;;;3.63;;